sensor_id;sensor_type;location;lat;lon;timestamp;P1;durP1;ratioP1;P2;durP2;ratioP2
3083;SDS011;1552;51.952;7.618;2024-01-06T00:01:22;9.20;;;5.57;;
3083;SDS011;1552;51.952;7.618;2024-01-06T00:03:50;10.93;;;5.57;;
3083;SDS011;1552;51.952;7.618;2024-01-06T00:06:16;11.10;;;5.57;;
3083;SDS011;1552;51.952;7.618;2024-01-06T00:08:42;6.77;;;4.40;;
3083;SDS011;1552;51.952;7.618;2024-01-06T00:11:09;11.67;;;5.73;;
3083;SDS011;1552;51.952;7.618;2024-01-06T00:13:35;8.50;;;5.07;;
3083;SDS011;1552;51.952;7.618;2024-01-06T00:16:02;9.23;;;5.13;;
3083;SDS011;1552;51.952;7.618;2024-01-06T00:18:28;9.30;;;6.03;;
3083;SDS011;1552;51.952;7.618;2024-01-06T00:20:56;8.50;;;5.23;;
3083;SDS011;1552;51.952;7.618;2024-01-06T00:23:22;13.27;;;5.40;;
3083;SDS011;1552;51.952;7.618;2024-01-06T00:25:48;12.90;;;6.10;;
3083;SDS011;1552;51.952;7.618;2024-01-06T00:28:14;8.57;;;5.20;;
3083;SDS011;1552;51.952;7.618;2024-01-06T00:30:41;8.77;;;5.67;;
3083;SDS011;1552;51.952;7.618;2024-01-06T00:33:07;10.77;;;5.67;;
3083;SDS011;1552;51.952;7.618;2024-01-06T00:35:33;9.27;;;5.83;;
3083;SDS011;1552;51.952;7.618;2024-01-06T00:38:01;10.20;;;5.83;;
3083;SDS011;1552;51.952;7.618;2024-01-06T00:40:27;8.07;;;5.37;;
3083;SDS011;1552;51.952;7.618;2024-01-06T00:42:53;10.03;;;6.27;;
3083;SDS011;1552;51.952;7.618;2024-01-06T00:45:20;10.50;;;6.67;;
3083;SDS011;1552;51.952;7.618;2024-01-06T00:47:47;9.53;;;6.00;;
3083;SDS011;1552;51.952;7.618;2024-01-06T00:50:13;12.73;;;6.53;;
3083;SDS011;1552;51.952;7.618;2024-01-06T00:52:40;13.30;;;7.07;;
3083;SDS011;1552;51.952;7.618;2024-01-06T00:55:10;11.40;;;6.57;;
3083;SDS011;1552;51.952;7.618;2024-01-06T00:57:36;11.00;;;6.83;;
3083;SDS011;1552;51.952;7.618;2024-01-06T01:00:03;9.23;;;6.23;;
3083;SDS011;1552;51.952;7.618;2024-01-06T01:02:29;10.80;;;6.70;;
3083;SDS011;1552;51.952;7.618;2024-01-06T01:04:56;13.50;;;7.50;;
3083;SDS011;1552;51.952;7.618;2024-01-06T01:07:22;14.03;;;7.33;;
3083;SDS011;1552;51.952;7.618;2024-01-06T01:09:48;15.60;;;7.33;;
3083;SDS011;1552;51.952;7.618;2024-01-06T01:12:16;9.77;;;6.30;;
3083;SDS011;1552;51.952;7.618;2024-01-06T01:14:42;11.70;;;6.57;;
3083;SDS011;1552;51.952;7.618;2024-01-06T01:17:08;12.00;;;6.83;;
3083;SDS011;1552;51.952;7.618;2024-01-06T01:19:35;12.07;;;6.70;;
3083;SDS011;1552;51.952;7.618;2024-01-06T01:22:01;10.27;;;6.07;;
3083;SDS011;1552;51.952;7.618;2024-01-06T01:24:28;12.37;;;6.97;;
3083;SDS011;1552;51.952;7.618;2024-01-06T01:26:54;11.80;;;6.23;;
3083;SDS011;1552;51.952;7.618;2024-01-06T01:29:21;11.47;;;6.13;;
3083;SDS011;1552;51.952;7.618;2024-01-06T01:31:48;11.27;;;6.57;;
3083;SDS011;1552;51.952;7.618;2024-01-06T01:34:14;11.53;;;7.07;;
3083;SDS011;1552;51.952;7.618;2024-01-06T01:36:40;12.73;;;6.90;;
3083;SDS011;1552;51.952;7.618;2024-01-06T01:39:06;10.43;;;6.50;;
3083;SDS011;1552;51.952;7.618;2024-01-06T01:41:33;11.73;;;6.17;;
3083;SDS011;1552;51.952;7.618;2024-01-06T01:43:59;9.97;;;5.50;;
3083;SDS011;1552;51.952;7.618;2024-01-06T01:46:27;11.40;;;6.70;;
3083;SDS011;1552;51.952;7.618;2024-01-06T01:48:53;12.90;;;7.30;;
3083;SDS011;1552;51.952;7.618;2024-01-06T01:51:22;11.83;;;6.87;;
3083;SDS011;1552;51.952;7.618;2024-01-06T01:53:49;14.13;;;6.93;;
3083;SDS011;1552;51.952;7.618;2024-01-06T01:56:15;13.97;;;6.70;;
3083;SDS011;1552;51.952;7.618;2024-01-06T01:58:42;11.97;;;6.40;;
3083;SDS011;1552;51.952;7.618;2024-01-06T02:01:08;12.90;;;6.67;;
3083;SDS011;1552;51.952;7.618;2024-01-06T02:03:36;9.10;;;5.87;;
3083;SDS011;1552;51.952;7.618;2024-01-06T02:06:03;13.70;;;7.87;;
3083;SDS011;1552;51.952;7.618;2024-01-06T02:08:29;12.07;;;5.90;;
3083;SDS011;1552;51.952;7.618;2024-01-06T02:10:55;14.07;;;7.40;;
3083;SDS011;1552;51.952;7.618;2024-01-06T02:13:22;13.00;;;7.40;;
3083;SDS011;1552;51.952;7.618;2024-01-06T02:15:48;15.07;;;7.07;;
3083;SDS011;1552;51.952;7.618;2024-01-06T02:18:14;13.30;;;7.40;;
3083;SDS011;1552;51.952;7.618;2024-01-06T02:20:43;14.97;;;7.60;;
3083;SDS011;1552;51.952;7.618;2024-01-06T02:23:10;12.23;;;7.00;;
3083;SDS011;1552;51.952;7.618;2024-01-06T02:25:37;10.27;;;6.37;;
3083;SDS011;1552;51.952;7.618;2024-01-06T02:28:03;13.83;;;7.60;;
3083;SDS011;1552;51.952;7.618;2024-01-06T02:30:29;14.17;;;7.73;;
3083;SDS011;1552;51.952;7.618;2024-01-06T02:32:56;14.30;;;7.80;;
3083;SDS011;1552;51.952;7.618;2024-01-06T02:35:22;11.87;;;7.23;;
3083;SDS011;1552;51.952;7.618;2024-01-06T02:37:48;12.67;;;6.90;;
3083;SDS011;1552;51.952;7.618;2024-01-06T02:40:16;14.70;;;7.10;;
3083;SDS011;1552;51.952;7.618;2024-01-06T02:42:42;13.33;;;7.03;;
3083;SDS011;1552;51.952;7.618;2024-01-06T02:45:08;15.27;;;7.90;;
3083;SDS011;1552;51.952;7.618;2024-01-06T02:47:35;14.87;;;7.43;;
3083;SDS011;1552;51.952;7.618;2024-01-06T02:50:01;14.53;;;7.30;;
3083;SDS011;1552;51.952;7.618;2024-01-06T02:52:27;14.40;;;7.03;;
3083;SDS011;1552;51.952;7.618;2024-01-06T02:54:54;11.83;;;7.10;;
3083;SDS011;1552;51.952;7.618;2024-01-06T02:57:21;12.63;;;7.50;;
3083;SDS011;1552;51.952;7.618;2024-01-06T02:59:47;16.00;;;7.97;;
3083;SDS011;1552;51.952;7.618;2024-01-06T03:02:14;15.47;;;8.10;;
3083;SDS011;1552;51.952;7.618;2024-01-06T03:04:40;18.77;;;8.63;;
3083;SDS011;1552;51.952;7.618;2024-01-06T03:07:06;18.27;;;8.10;;
3083;SDS011;1552;51.952;7.618;2024-01-06T03:09:33;13.83;;;7.50;;
3083;SDS011;1552;51.952;7.618;2024-01-06T03:11:59;13.80;;;7.87;;
3083;SDS011;1552;51.952;7.618;2024-01-06T03:14:26;15.20;;;8.03;;
3083;SDS011;1552;51.952;7.618;2024-01-06T03:16:53;16.27;;;7.70;;
3083;SDS011;1552;51.952;7.618;2024-01-06T03:19:19;12.33;;;7.60;;
3083;SDS011;1552;51.952;7.618;2024-01-06T03:21:45;14.87;;;7.57;;
3083;SDS011;1552;51.952;7.618;2024-01-06T03:24:12;12.03;;;6.70;;
3083;SDS011;1552;51.952;7.618;2024-01-06T03:26:38;12.03;;;6.53;;
3083;SDS011;1552;51.952;7.618;2024-01-06T03:29:04;10.50;;;6.03;;
3083;SDS011;1552;51.952;7.618;2024-01-06T03:31:32;11.93;;;5.67;;
3083;SDS011;1552;51.952;7.618;2024-01-06T03:33:58;9.53;;;5.33;;
3083;SDS011;1552;51.952;7.618;2024-01-06T03:36:25;13.73;;;6.70;;
3083;SDS011;1552;51.952;7.618;2024-01-06T03:38:51;11.63;;;6.40;;
3083;SDS011;1552;51.952;7.618;2024-01-06T03:41:17;11.20;;;6.20;;
3083;SDS011;1552;51.952;7.618;2024-01-06T03:43:43;12.07;;;6.10;;
3083;SDS011;1552;51.952;7.618;2024-01-06T03:46:10;13.33;;;6.07;;
3083;SDS011;1552;51.952;7.618;2024-01-06T03:48:37;9.80;;;6.17;;
3083;SDS011;1552;51.952;7.618;2024-01-06T03:51:03;11.40;;;6.00;;
3083;SDS011;1552;51.952;7.618;2024-01-06T03:53:30;11.43;;;5.33;;
3083;SDS011;1552;51.952;7.618;2024-01-06T03:55:56;11.63;;;6.13;;
3083;SDS011;1552;51.952;7.618;2024-01-06T03:58:23;12.97;;;5.93;;
3083;SDS011;1552;51.952;7.618;2024-01-06T04:00:49;14.23;;;6.40;;
3083;SDS011;1552;51.952;7.618;2024-01-06T04:03:15;13.53;;;6.53;;
3083;SDS011;1552;51.952;7.618;2024-01-06T04:05:43;15.67;;;6.63;;
3083;SDS011;1552;51.952;7.618;2024-01-06T04:08:09;10.47;;;6.30;;
3083;SDS011;1552;51.952;7.618;2024-01-06T04:10:35;13.30;;;7.33;;
3083;SDS011;1552;51.952;7.618;2024-01-06T04:13:01;11.93;;;7.17;;
3083;SDS011;1552;51.952;7.618;2024-01-06T04:15:28;14.77;;;8.10;;
3083;SDS011;1552;51.952;7.618;2024-01-06T04:17:54;14.33;;;8.80;;
3083;SDS011;1552;51.952;7.618;2024-01-06T04:20:20;13.90;;;7.60;;
3083;SDS011;1552;51.952;7.618;2024-01-06T04:22:48;14.50;;;7.43;;
3083;SDS011;1552;51.952;7.618;2024-01-06T04:25:14;18.23;;;8.33;;
3083;SDS011;1552;51.952;7.618;2024-01-06T04:27:40;16.13;;;8.97;;
3083;SDS011;1552;51.952;7.618;2024-01-06T04:30:07;15.10;;;8.07;;
3083;SDS011;1552;51.952;7.618;2024-01-06T04:32:33;12.77;;;7.47;;
3083;SDS011;1552;51.952;7.618;2024-01-06T04:34:59;16.00;;;8.43;;
3083;SDS011;1552;51.952;7.618;2024-01-06T04:37:25;16.87;;;8.30;;
3083;SDS011;1552;51.952;7.618;2024-01-06T04:39:53;11.60;;;6.30;;
3083;SDS011;1552;51.952;7.618;2024-01-06T04:42:19;10.17;;;5.67;;
3083;SDS011;1552;51.952;7.618;2024-01-06T04:44:47;11.33;;;5.27;;
3083;SDS011;1552;51.952;7.618;2024-01-06T04:47:13;6.47;;;4.23;;
3083;SDS011;1552;51.952;7.618;2024-01-06T04:49:39;8.47;;;4.53;;
3083;SDS011;1552;51.952;7.618;2024-01-06T04:52:06;5.40;;;3.23;;
3083;SDS011;1552;51.952;7.618;2024-01-06T04:54:32;7.93;;;4.00;;
3083;SDS011;1552;51.952;7.618;2024-01-06T04:57:00;5.60;;;3.40;;
3083;SDS011;1552;51.952;7.618;2024-01-06T04:59:26;7.23;;;3.87;;
3083;SDS011;1552;51.952;7.618;2024-01-06T05:01:52;7.57;;;3.73;;
3083;SDS011;1552;51.952;7.618;2024-01-06T05:04:19;6.77;;;3.63;;
3083;SDS011;1552;51.952;7.618;2024-01-06T05:06:45;6.60;;;3.77;;
3083;SDS011;1552;51.952;7.618;2024-01-06T05:09:12;7.70;;;3.47;;
3083;SDS011;1552;51.952;7.618;2024-01-06T05:11:38;6.13;;;4.20;;
3083;SDS011;1552;51.952;7.618;2024-01-06T05:14:05;7.87;;;4.33;;
3083;SDS011;1552;51.952;7.618;2024-01-06T05:16:32;5.40;;;3.40;;
3083;SDS011;1552;51.952;7.618;2024-01-06T05:18:58;8.13;;;4.30;;
3083;SDS011;1552;51.952;7.618;2024-01-06T05:21:24;9.50;;;4.60;;
3083;SDS011;1552;51.952;7.618;2024-01-06T05:23:50;9.00;;;4.57;;
3083;SDS011;1552;51.952;7.618;2024-01-06T05:26:17;9.13;;;4.33;;
3083;SDS011;1552;51.952;7.618;2024-01-06T05:28:43;11.10;;;4.90;;
3083;SDS011;1552;51.952;7.618;2024-01-06T05:31:11;8.07;;;4.70;;
3083;SDS011;1552;51.952;7.618;2024-01-06T05:33:37;10.13;;;5.13;;
3083;SDS011;1552;51.952;7.618;2024-01-06T05:36:04;10.53;;;5.33;;
3083;SDS011;1552;51.952;7.618;2024-01-06T05:38:30;12.23;;;6.10;;
3083;SDS011;1552;51.952;7.618;2024-01-06T05:40:56;10.23;;;5.77;;
3083;SDS011;1552;51.952;7.618;2024-01-06T05:43:23;13.90;;;6.13;;
3083;SDS011;1552;51.952;7.618;2024-01-06T05:45:49;11.23;;;6.63;;
3083;SDS011;1552;51.952;7.618;2024-01-06T05:48:17;11.13;;;5.80;;
3083;SDS011;1552;51.952;7.618;2024-01-06T05:50:43;12.07;;;6.57;;
3083;SDS011;1552;51.952;7.618;2024-01-06T05:53:09;14.13;;;6.80;;
3083;SDS011;1552;51.952;7.618;2024-01-06T05:55:36;12.80;;;5.43;;
3083;SDS011;1552;51.952;7.618;2024-01-06T05:58:03;12.77;;;6.03;;
3083;SDS011;1552;51.952;7.618;2024-01-06T06:00:29;12.60;;;5.97;;
3083;SDS011;1552;51.952;7.618;2024-01-06T06:02:56;10.57;;;6.17;;
3083;SDS011;1552;51.952;7.618;2024-01-06T06:05:24;11.07;;;5.67;;
3083;SDS011;1552;51.952;7.618;2024-01-06T06:07:51;14.17;;;5.30;;
3083;SDS011;1552;51.952;7.618;2024-01-06T06:10:18;16.17;;;5.87;;
3083;SDS011;1552;51.952;7.618;2024-01-06T06:12:44;10.20;;;5.63;;
3083;SDS011;1552;51.952;7.618;2024-01-06T06:15:10;11.80;;;5.10;;
3083;SDS011;1552;51.952;7.618;2024-01-06T06:17:38;10.50;;;5.20;;
3083;SDS011;1552;51.952;7.618;2024-01-06T06:20:05;12.27;;;5.70;;
3083;SDS011;1552;51.952;7.618;2024-01-06T06:22:33;11.97;;;5.60;;
3083;SDS011;1552;51.952;7.618;2024-01-06T06:25:00;9.60;;;5.03;;
3083;SDS011;1552;51.952;7.618;2024-01-06T06:27:26;8.70;;;5.73;;
3083;SDS011;1552;51.952;7.618;2024-01-06T06:29:53;10.70;;;4.83;;
3083;SDS011;1552;51.952;7.618;2024-01-06T06:32:19;11.40;;;5.47;;
3083;SDS011;1552;51.952;7.618;2024-01-06T06:34:45;14.03;;;6.10;;
3083;SDS011;1552;51.952;7.618;2024-01-06T06:37:12;11.27;;;6.47;;
3083;SDS011;1552;51.952;7.618;2024-01-06T06:39:39;10.10;;;5.87;;
3083;SDS011;1552;51.952;7.618;2024-01-06T06:42:07;12.20;;;6.00;;
3083;SDS011;1552;51.952;7.618;2024-01-06T06:44:33;13.60;;;6.50;;
3083;SDS011;1552;51.952;7.618;2024-01-06T06:46:59;12.53;;;6.90;;
3083;SDS011;1552;51.952;7.618;2024-01-06T06:49:26;10.43;;;6.30;;
3083;SDS011;1552;51.952;7.618;2024-01-06T06:51:52;11.87;;;6.53;;
3083;SDS011;1552;51.952;7.618;2024-01-06T06:54:20;13.10;;;6.40;;
3083;SDS011;1552;51.952;7.618;2024-01-06T06:56:48;11.17;;;5.53;;
3083;SDS011;1552;51.952;7.618;2024-01-06T06:59:14;11.73;;;6.70;;
3083;SDS011;1552;51.952;7.618;2024-01-06T07:01:41;14.13;;;7.03;;
3083;SDS011;1552;51.952;7.618;2024-01-06T07:04:07;10.47;;;6.13;;
3083;SDS011;1552;51.952;7.618;2024-01-06T07:06:33;11.37;;;6.90;;
3083;SDS011;1552;51.952;7.618;2024-01-06T07:08:59;11.83;;;6.70;;
3083;SDS011;1552;51.952;7.618;2024-01-06T07:11:26;16.87;;;7.10;;
3083;SDS011;1552;51.952;7.618;2024-01-06T07:13:53;15.07;;;6.83;;
3083;SDS011;1552;51.952;7.618;2024-01-06T07:16:20;15.40;;;7.13;;
3083;SDS011;1552;51.952;7.618;2024-01-06T07:18:46;14.60;;;7.40;;
3083;SDS011;1552;51.952;7.618;2024-01-06T07:21:12;9.77;;;5.93;;
3083;SDS011;1552;51.952;7.618;2024-01-06T07:23:39;11.70;;;6.93;;
3083;SDS011;1552;51.952;7.618;2024-01-06T07:26:05;11.90;;;6.73;;
3083;SDS011;1552;51.952;7.618;2024-01-06T07:28:32;13.17;;;6.30;;
3083;SDS011;1552;51.952;7.618;2024-01-06T07:30:59;15.83;;;6.13;;
3083;SDS011;1552;51.952;7.618;2024-01-06T07:33:26;15.03;;;6.93;;
3083;SDS011;1552;51.952;7.618;2024-01-06T07:35:52;11.63;;;6.20;;
3083;SDS011;1552;51.952;7.618;2024-01-06T07:38:18;12.03;;;6.60;;
3083;SDS011;1552;51.952;7.618;2024-01-06T07:40:45;15.57;;;7.03;;
3083;SDS011;1552;51.952;7.618;2024-01-06T07:43:11;12.87;;;6.20;;
3083;SDS011;1552;51.952;7.618;2024-01-06T07:45:37;16.33;;;7.07;;
3083;SDS011;1552;51.952;7.618;2024-01-06T07:48:06;13.27;;;6.73;;
3083;SDS011;1552;51.952;7.618;2024-01-06T07:50:32;11.93;;;6.43;;
3083;SDS011;1552;51.952;7.618;2024-01-06T07:52:58;13.23;;;6.60;;
3083;SDS011;1552;51.952;7.618;2024-01-06T07:55:25;15.33;;;6.50;;
3083;SDS011;1552;51.952;7.618;2024-01-06T07:57:53;14.87;;;7.03;;
3083;SDS011;1552;51.952;7.618;2024-01-06T08:00:20;14.00;;;6.13;;
3083;SDS011;1552;51.952;7.618;2024-01-06T08:02:46;15.13;;;7.63;;
3083;SDS011;1552;51.952;7.618;2024-01-06T08:05:13;13.47;;;7.10;;
3083;SDS011;1552;51.952;7.618;2024-01-06T08:07:40;13.23;;;7.87;;
3083;SDS011;1552;51.952;7.618;2024-01-06T08:10:07;15.07;;;7.37;;
3083;SDS011;1552;51.952;7.618;2024-01-06T08:12:35;18.13;;;8.07;;
3083;SDS011;1552;51.952;7.618;2024-01-06T08:15:01;12.57;;;6.87;;
3083;SDS011;1552;51.952;7.618;2024-01-06T08:17:27;13.30;;;7.30;;
3083;SDS011;1552;51.952;7.618;2024-01-06T08:19:54;13.87;;;7.53;;
3083;SDS011;1552;51.952;7.618;2024-01-06T08:22:21;18.90;;;8.73;;
3083;SDS011;1552;51.952;7.618;2024-01-06T08:24:48;17.00;;;8.67;;
3083;SDS011;1552;51.952;7.618;2024-01-06T08:27:14;16.87;;;8.50;;
3083;SDS011;1552;51.952;7.618;2024-01-06T08:29:40;13.53;;;7.83;;
3083;SDS011;1552;51.952;7.618;2024-01-06T08:32:07;12.23;;;7.37;;
3083;SDS011;1552;51.952;7.618;2024-01-06T08:34:33;16.43;;;7.30;;
3083;SDS011;1552;51.952;7.618;2024-01-06T08:36:59;13.87;;;7.50;;
3083;SDS011;1552;51.952;7.618;2024-01-06T08:39:27;11.13;;;6.50;;
3083;SDS011;1552;51.952;7.618;2024-01-06T08:41:53;15.33;;;7.20;;
3083;SDS011;1552;51.952;7.618;2024-01-06T08:44:19;14.77;;;7.07;;
3083;SDS011;1552;51.952;7.618;2024-01-06T08:46:46;15.70;;;7.10;;
3083;SDS011;1552;51.952;7.618;2024-01-06T08:49:12;13.23;;;7.37;;
3083;SDS011;1552;51.952;7.618;2024-01-06T08:51:38;16.87;;;8.10;;
3083;SDS011;1552;51.952;7.618;2024-01-06T08:54:05;15.73;;;8.50;;
3083;SDS011;1552;51.952;7.618;2024-01-06T08:56:33;18.80;;;9.77;;
3083;SDS011;1552;51.952;7.618;2024-01-06T08:58:59;19.17;;;8.83;;
3083;SDS011;1552;51.952;7.618;2024-01-06T09:01:25;17.23;;;8.77;;
3083;SDS011;1552;51.952;7.618;2024-01-06T09:03:51;17.10;;;9.13;;
3083;SDS011;1552;51.952;7.618;2024-01-06T09:06:18;17.63;;;8.73;;
3083;SDS011;1552;51.952;7.618;2024-01-06T09:08:44;16.58;;;9.40;;
3083;SDS011;1552;51.952;7.618;2024-01-06T09:11:10;13.77;;;7.97;;
3083;SDS011;1552;51.952;7.618;2024-01-06T09:13:38;13.87;;;7.53;;
3083;SDS011;1552;51.952;7.618;2024-01-06T09:16:05;15.40;;;7.57;;
3083;SDS011;1552;51.952;7.618;2024-01-06T09:18:31;11.63;;;6.60;;
3083;SDS011;1552;51.952;7.618;2024-01-06T09:20:58;13.33;;;6.47;;
3083;SDS011;1552;51.952;7.618;2024-01-06T09:23:24;12.00;;;6.40;;
3083;SDS011;1552;51.952;7.618;2024-01-06T09:25:50;14.67;;;6.43;;
3083;SDS011;1552;51.952;7.618;2024-01-06T09:28:17;15.00;;;5.63;;
3083;SDS011;1552;51.952;7.618;2024-01-06T09:30:45;11.10;;;5.20;;
3083;SDS011;1552;51.952;7.618;2024-01-06T09:33:11;11.13;;;5.43;;
3083;SDS011;1552;51.952;7.618;2024-01-06T09:35:40;10.17;;;5.93;;
3083;SDS011;1552;51.952;7.618;2024-01-06T09:38:07;11.00;;;5.73;;
3083;SDS011;1552;51.952;7.618;2024-01-06T09:40:33;9.27;;;5.50;;
3083;SDS011;1552;51.952;7.618;2024-01-06T09:43:00;9.60;;;5.23;;
3083;SDS011;1552;51.952;7.618;2024-01-06T09:45:27;10.07;;;4.80;;
3083;SDS011;1552;51.952;7.618;2024-01-06T09:47:54;8.57;;;4.90;;
3083;SDS011;1552;51.952;7.618;2024-01-06T09:50:21;6.93;;;4.67;;
3083;SDS011;1552;51.952;7.618;2024-01-06T09:52:48;10.10;;;5.73;;
3083;SDS011;1552;51.952;7.618;2024-01-06T09:55:19;9.33;;;5.30;;
3083;SDS011;1552;51.952;7.618;2024-01-06T09:57:47;10.73;;;5.17;;
3083;SDS011;1552;51.952;7.618;2024-01-06T10:00:14;9.53;;;5.57;;
3083;SDS011;1552;51.952;7.618;2024-01-06T10:02:40;10.40;;;5.57;;
3083;SDS011;1552;51.952;7.618;2024-01-06T10:05:09;9.73;;;5.20;;
3083;SDS011;1552;51.952;7.618;2024-01-06T10:07:37;7.90;;;5.27;;
3083;SDS011;1552;51.952;7.618;2024-01-06T10:10:03;10.13;;;4.93;;
3083;SDS011;1552;51.952;7.618;2024-01-06T10:12:30;8.53;;;5.27;;
3083;SDS011;1552;51.952;7.618;2024-01-06T10:14:56;7.73;;;4.73;;
3083;SDS011;1552;51.952;7.618;2024-01-06T10:17:22;7.67;;;4.47;;
3083;SDS011;1552;51.952;7.618;2024-01-06T10:19:49;9.50;;;5.03;;
3083;SDS011;1552;51.952;7.618;2024-01-06T10:22:20;10.70;;;5.87;;
3083;SDS011;1552;51.952;7.618;2024-01-06T10:24:46;11.27;;;6.33;;
3083;SDS011;1552;51.952;7.618;2024-01-06T10:27:12;10.03;;;4.97;;
3083;SDS011;1552;51.952;7.618;2024-01-06T10:29:38;10.10;;;5.93;;
3083;SDS011;1552;51.952;7.618;2024-01-06T10:32:05;10.60;;;5.30;;
3083;SDS011;1552;51.952;7.618;2024-01-06T10:34:32;10.27;;;5.47;;
3083;SDS011;1552;51.952;7.618;2024-01-06T10:36:58;8.87;;;5.47;;
3083;SDS011;1552;51.952;7.618;2024-01-06T10:39:26;11.30;;;4.90;;
3083;SDS011;1552;51.952;7.618;2024-01-06T10:41:54;8.30;;;5.70;;
3083;SDS011;1552;51.952;7.618;2024-01-06T10:44:21;9.23;;;5.27;;
3083;SDS011;1552;51.952;7.618;2024-01-06T10:46:47;9.77;;;5.13;;
3083;SDS011;1552;51.952;7.618;2024-01-06T10:49:14;11.80;;;5.60;;
3083;SDS011;1552;51.952;7.618;2024-01-06T10:51:41;13.43;;;5.53;;
3083;SDS011;1552;51.952;7.618;2024-01-06T10:54:07;9.73;;;5.27;;
3083;SDS011;1552;51.952;7.618;2024-01-06T10:56:37;8.90;;;4.70;;
3083;SDS011;1552;51.952;7.618;2024-01-06T10:59:04;10.23;;;4.90;;
3083;SDS011;1552;51.952;7.618;2024-01-06T11:01:31;9.40;;;5.30;;
3083;SDS011;1552;51.952;7.618;2024-01-06T11:03:58;9.10;;;5.30;;
3083;SDS011;1552;51.952;7.618;2024-01-06T11:06:25;9.23;;;5.10;;
3083;SDS011;1552;51.952;7.618;2024-01-06T11:08:53;10.97;;;5.20;;
3083;SDS011;1552;51.952;7.618;2024-01-06T11:11:22;8.57;;;4.87;;
3083;SDS011;1552;51.952;7.618;2024-01-06T11:13:51;7.43;;;4.77;;
3083;SDS011;1552;51.952;7.618;2024-01-06T11:18:58;8.07;;;4.90;;
3083;SDS011;1552;51.952;7.618;2024-01-06T11:21:24;10.70;;;4.90;;
3083;SDS011;1552;51.952;7.618;2024-01-06T11:26:37;10.03;;;4.93;;
3083;SDS011;1552;51.952;7.618;2024-01-06T11:29:05;8.37;;;4.03;;
3083;SDS011;1552;51.952;7.618;2024-01-06T11:31:33;5.73;;;4.00;;
3083;SDS011;1552;51.952;7.618;2024-01-06T11:34:11;8.97;;;5.10;;
3083;SDS011;1552;51.952;7.618;2024-01-06T11:36:38;6.77;;;4.00;;
3083;SDS011;1552;51.952;7.618;2024-01-06T11:39:04;9.00;;;4.53;;
3083;SDS011;1552;51.952;7.618;2024-01-06T11:41:49;9.03;;;4.60;;
3083;SDS011;1552;51.952;7.618;2024-01-06T11:44:19;6.93;;;4.30;;
3083;SDS011;1552;51.952;7.618;2024-01-06T11:46:47;8.93;;;4.93;;
3083;SDS011;1552;51.952;7.618;2024-01-06T11:49:14;8.40;;;4.13;;
3083;SDS011;1552;51.952;7.618;2024-01-06T11:51:41;9.40;;;5.17;;
3083;SDS011;1552;51.952;7.618;2024-01-06T11:54:07;7.60;;;4.53;;
3083;SDS011;1552;51.952;7.618;2024-01-06T11:56:35;8.30;;;5.30;;
3083;SDS011;1552;51.952;7.618;2024-01-06T11:59:01;9.27;;;5.10;;
3083;SDS011;1552;51.952;7.618;2024-01-06T12:01:28;8.13;;;4.83;;
3083;SDS011;1552;51.952;7.618;2024-01-06T12:04:02;10.03;;;5.43;;
3083;SDS011;1552;51.952;7.618;2024-01-06T12:06:30;9.20;;;5.07;;
3083;SDS011;1552;51.952;7.618;2024-01-06T12:09:02;8.67;;;5.07;;
3083;SDS011;1552;51.952;7.618;2024-01-06T12:11:30;10.23;;;5.30;;
3083;SDS011;1552;51.952;7.618;2024-01-06T12:13:56;9.53;;;5.20;;
3083;SDS011;1552;51.952;7.618;2024-01-06T12:16:22;10.70;;;5.77;;
3083;SDS011;1552;51.952;7.618;2024-01-06T12:18:53;8.17;;;4.63;;
3083;SDS011;1552;51.952;7.618;2024-01-06T12:21:20;9.10;;;4.87;;
3083;SDS011;1552;51.952;7.618;2024-01-06T12:23:46;8.33;;;4.50;;
3083;SDS011;1552;51.952;7.618;2024-01-06T12:26:13;8.90;;;5.10;;
3083;SDS011;1552;51.952;7.618;2024-01-06T12:28:39;7.73;;;4.80;;
3083;SDS011;1552;51.952;7.618;2024-01-06T12:31:08;10.33;;;5.47;;
3083;SDS011;1552;51.952;7.618;2024-01-06T12:33:35;7.97;;;5.03;;
3083;SDS011;1552;51.952;7.618;2024-01-06T12:36:03;7.67;;;4.97;;
3083;SDS011;1552;51.952;7.618;2024-01-06T12:38:30;7.80;;;4.60;;
3083;SDS011;1552;51.952;7.618;2024-01-06T12:40:56;7.83;;;4.83;;
3083;SDS011;1552;51.952;7.618;2024-01-06T12:43:22;8.63;;;5.00;;
3083;SDS011;1552;51.952;7.618;2024-01-06T12:45:49;8.60;;;5.10;;
3083;SDS011;1552;51.952;7.618;2024-01-06T12:48:17;9.27;;;5.50;;
3083;SDS011;1552;51.952;7.618;2024-01-06T12:50:43;9.10;;;5.30;;
3083;SDS011;1552;51.952;7.618;2024-01-06T12:53:11;8.97;;;5.50;;
3083;SDS011;1552;51.952;7.618;2024-01-06T12:55:40;11.00;;;6.07;;
3083;SDS011;1552;51.952;7.618;2024-01-06T12:58:06;8.87;;;6.17;;
3083;SDS011;1552;51.952;7.618;2024-01-06T13:00:33;10.23;;;5.17;;
3083;SDS011;1552;51.952;7.618;2024-01-06T13:02:59;7.37;;;5.23;;
3083;SDS011;1552;51.952;7.618;2024-01-06T13:05:25;8.73;;;5.27;;
3083;SDS011;1552;51.952;7.618;2024-01-06T13:07:52;11.40;;;7.43;;
3083;SDS011;1552;51.952;7.618;2024-01-06T13:10:19;10.40;;;5.40;;
3083;SDS011;1552;51.952;7.618;2024-01-06T13:12:46;8.17;;;4.87;;
3083;SDS011;1552;51.952;7.618;2024-01-06T13:15:12;8.57;;;4.97;;
3083;SDS011;1552;51.952;7.618;2024-01-06T13:17:38;10.47;;;6.13;;
3083;SDS011;1552;51.952;7.618;2024-01-06T13:20:05;12.00;;;5.80;;
3083;SDS011;1552;51.952;7.618;2024-01-06T13:22:33;9.30;;;5.93;;
3083;SDS011;1552;51.952;7.618;2024-01-06T13:24:59;11.67;;;5.87;;
3083;SDS011;1552;51.952;7.618;2024-01-06T13:27:27;12.20;;;5.13;;
3083;SDS011;1552;51.952;7.618;2024-01-06T13:29:54;8.53;;;4.97;;
3083;SDS011;1552;51.952;7.618;2024-01-06T13:32:20;8.63;;;5.03;;
3083;SDS011;1552;51.952;7.618;2024-01-06T13:34:47;9.33;;;5.37;;
3083;SDS011;1552;51.952;7.618;2024-01-06T13:37:19;7.30;;;4.77;;
3083;SDS011;1552;51.952;7.618;2024-01-06T13:39:47;8.87;;;4.87;;
3083;SDS011;1552;51.952;7.618;2024-01-06T13:42:13;9.93;;;5.03;;
3083;SDS011;1552;51.952;7.618;2024-01-06T13:44:41;9.80;;;5.10;;
3083;SDS011;1552;51.952;7.618;2024-01-06T13:47:09;7.80;;;4.80;;
3083;SDS011;1552;51.952;7.618;2024-01-06T13:49:35;7.80;;;5.30;;
3083;SDS011;1552;51.952;7.618;2024-01-06T13:52:01;10.60;;;4.80;;
3083;SDS011;1552;51.952;7.618;2024-01-06T13:54:29;7.97;;;4.93;;
3083;SDS011;1552;51.952;7.618;2024-01-06T13:56:55;11.60;;;5.40;;
3083;SDS011;1552;51.952;7.618;2024-01-06T13:59:21;10.13;;;4.73;;
3083;SDS011;1552;51.952;7.618;2024-01-06T14:01:48;8.43;;;5.10;;
3083;SDS011;1552;51.952;7.618;2024-01-06T14:04:14;9.87;;;5.63;;
3083;SDS011;1552;51.952;7.618;2024-01-06T14:06:42;8.87;;;4.77;;
3083;SDS011;1552;51.952;7.618;2024-01-06T14:09:08;11.50;;;5.00;;
3083;SDS011;1552;51.952;7.618;2024-01-06T14:11:34;9.20;;;5.20;;
3083;SDS011;1552;51.952;7.618;2024-01-06T14:14:01;8.90;;;5.03;;
3083;SDS011;1552;51.952;7.618;2024-01-06T14:16:27;6.80;;;4.40;;
3083;SDS011;1552;51.952;7.618;2024-01-06T14:18:55;6.03;;;4.43;;
3083;SDS011;1552;51.952;7.618;2024-01-06T14:21:21;8.47;;;4.63;;
3083;SDS011;1552;51.952;7.618;2024-01-06T14:23:47;8.50;;;5.17;;
3083;SDS011;1552;51.952;7.618;2024-01-06T14:26:14;9.30;;;5.30;;
3083;SDS011;1552;51.952;7.618;2024-01-06T14:28:41;9.30;;;5.13;;
3083;SDS011;1552;51.952;7.618;2024-01-06T14:31:08;13.40;;;5.50;;
3083;SDS011;1552;51.952;7.618;2024-01-06T14:33:35;8.40;;;4.90;;
3083;SDS011;1552;51.952;7.618;2024-01-06T14:36:03;12.07;;;5.77;;
3083;SDS011;1552;51.952;7.618;2024-01-06T14:38:29;11.53;;;6.50;;
3083;SDS011;1552;51.952;7.618;2024-01-06T14:40:56;10.43;;;6.40;;
3083;SDS011;1552;51.952;7.618;2024-01-06T14:43:22;11.53;;;5.90;;
3083;SDS011;1552;51.952;7.618;2024-01-06T14:45:48;10.93;;;6.60;;
3083;SDS011;1552;51.952;7.618;2024-01-06T14:48:14;13.20;;;7.20;;
3083;SDS011;1552;51.952;7.618;2024-01-06T14:50:41;13.07;;;7.13;;
3083;SDS011;1552;51.952;7.618;2024-01-06T14:53:08;12.03;;;6.93;;
3083;SDS011;1552;51.952;7.618;2024-01-06T14:55:35;15.80;;;8.03;;
3083;SDS011;1552;51.952;7.618;2024-01-06T14:58:03;12.17;;;7.43;;
3083;SDS011;1552;51.952;7.618;2024-01-06T15:00:29;14.80;;;7.47;;
3083;SDS011;1552;51.952;7.618;2024-01-06T15:02:55;11.27;;;6.90;;
3083;SDS011;1552;51.952;7.618;2024-01-06T15:05:22;14.87;;;8.27;;
3083;SDS011;1552;51.952;7.618;2024-01-06T15:07:50;14.57;;;7.30;;